TimeEDT,TemperatureF,Dew PointF,Humidity,Sea Level PressureIn,VisibilityMPH,Wind Direction,Wind SpeedMPH,Gust SpeedMPH,PrecipitationIn,Events,Conditions,WindDirDegrees,DateUTC
12:53 AM,50.0,46.9,89,30.01,10.0,South,9.2,-,N/A,,Scattered Clouds,180,2013-03-12 04:53:00
1:53 AM,52.0,46.9,83,29.98,10.0,South,11.5,-,N/A,,Clear,180,2013-03-12 05:53:00
2:53 AM,52.0,46.9,83,29.96,10.0,South,8.1,-,N/A,,Scattered Clouds,180,2013-03-12 06:53:00
3:53 AM,53.1,46.9,80,29.94,9.0,South,10.4,-,0.01,Rain,Light Rain,190,2013-03-12 07:53:00
4:53 AM,53.1,48.0,83,29.92,10.0,South,8.1,-,0.02,Rain,Light Rain,190,2013-03-12 08:53:00
5:53 AM,53.1,48.9,86,29.91,9.0,SSW,10.4,-,0.01,Rain,Light Rain,200,2013-03-12 09:53:00
6:53 AM,53.1,48.9,86,29.91,8.0,South,10.4,-,0.01,Rain,Light Rain,190,2013-03-12 10:53:00
7:53 AM,53.1,48.9,86,29.88,6.0,South,11.5,-,0.05,Rain,Light Rain,190,2013-03-12 11:53:00
8:53 AM,53.1,50.0,89,29.87,5.0,South,15.0,-,0.02,Rain,Light Rain,190,2013-03-12 12:53:00
9:23 AM,53.6,51.8,94,29.88,4.0,South,16.1,25.3,0.03,Rain,Light Rain,190,2013-03-12 13:23:00
9:35 AM,53.6,51.8,94,29.88,4.0,South,15.0,-,0.04,Rain,Light Rain,190,2013-03-12 13:35:00
9:53 AM,54.0,51.1,90,29.86,3.0,South,11.5,-,0.08,Rain,Rain,190,2013-03-12 13:53:00
10:33 AM,53.6,51.8,94,29.85,2.5,South,13.8,21.9,0.06,Rain,Rain,180,2013-03-12 14:33:00
10:53 AM,54.0,52.0,93,29.81,2.5,South,15.0,-,0.09,Rain,Light Rain,170,2013-03-12 14:53:00
10:57 AM,53.6,51.8,94,29.82,3.0,South,11.5,-,0.00,Rain,Light Rain,170,2013-03-12 14:57:00
11:05 AM,53.6,51.8,94,29.82,3.0,South,15.0,20.7,0.02,Rain,Light Rain,180,2013-03-12 15:05:00
11:53 AM,55.9,53.1,90,29.77,4.0,South,17.3,25.3,0.05,Rain,Rain,190,2013-03-12 15:53:00
12:53 PM,55.9,53.1,90,29.74,5.0,South,17.3,29.9,0.09,Rain,Light Rain,190,2013-03-12 16:53:00
1:53 PM,55.9,53.1,90,29.69,8.0,SSW,19.6,28.8,0.08,Rain,Light Rain,200,2013-03-12 17:53:00
2:15 PM,55.4,53.6,94,29.70,1.8,South,19.6,32.2,0.05,Rain,Rain,190,2013-03-12 18:15:00
2:42 PM,55.4,53.6,94,29.69,2.0,SSW,13.8,21.9,0.18,Rain,Heavy Rain,210,2013-03-12 18:42:00
2:49 PM,55.4,53.6,94,29.69,1.8,SW,12.7,20.7,0.22,Rain,Heavy Rain,220,2013-03-12 18:49:00
2:53 PM,55.9,54.0,93,29.68,1.5,SW,15.0,-,0.24,Rain,Heavy Rain,220,2013-03-12 18:53:00
3:03 PM,55.4,55.4,100,29.68,2.0,SSW,13.8,-,0.02,Rain,Light Rain,210,2013-03-12 19:03:00
3:13 PM,57.2,55.4,94,29.68,7.0,SSW,12.7,-,0.02,Rain,Light Rain,210,2013-03-12 19:13:00
3:48 PM,57.2,55.4,94,29.68,1.8,WSW,13.8,23.0,0.03,Rain,Light Rain,240,2013-03-12 19:48:00
3:53 PM,57.0,55.0,93,29.66,1.5,WSW,13.8,23.0,0.03,Rain,Light Rain,240,2013-03-12 19:53:00
4:04 PM,57.2,55.4,94,29.68,3.0,WSW,11.5,-,0.00,Rain,Light Rain,240,2013-03-12 20:04:00
4:53 PM,57.9,55.9,93,29.68,10.0,WNW,6.9,-,0.00,,Overcast,290,2013-03-12 20:53:00
5:25 PM,55.4,51.8,88,29.71,5.0,NW,8.1,-,0.02,Rain,Light Rain,310,2013-03-12 21:25:00
5:53 PM,54.0,48.0,80,29.72,10.0,NW,16.1,23.0,0.02,,Overcast,320,2013-03-12 21:53:00
6:26 PM,53.6,44.6,72,29.76,10.0,WNW,16.1,23.0,N/A,,Overcast,290,2013-03-12 22:26:00
6:53 PM,51.1,44.1,77,29.76,10.0,WNW,16.1,23.0,N/A,,Overcast,290,2013-03-12 22:53:00
7:53 PM,48.9,41.0,74,29.79,10.0,NW,9.2,-,N/A,,Mostly Cloudy,320,2013-03-12 23:53:00
8:32 PM,48.2,39.2,71,29.83,10.0,NW,5.8,-,N/A,,Mostly Cloudy,310,2013-03-13 00:32:00
8:53 PM,48.9,39.9,71,29.82,10.0,WNW,4.6,-,N/A,,Overcast,300,2013-03-13 00:53:00
9:16 PM,48.2,39.2,71,29.84,10.0,NW,10.4,-,N/A,,Overcast,310,2013-03-13 01:16:00
9:29 PM,48.2,39.2,71,29.84,10.0,NNW,6.9,-,N/A,,Overcast,330,2013-03-13 01:29:00
9:53 PM,48.0,39.0,71,29.83,10.0,NNW,5.8,-,N/A,,Overcast,330,2013-03-13 01:53:00
10:05 PM,46.4,39.2,76,29.84,10.0,NNW,5.8,-,N/A,,Mostly Cloudy,340,2013-03-13 02:05:00
10:53 PM,46.9,39.0,74,29.83,10.0,North,9.2,-,N/A,,Mostly Cloudy,350,2013-03-13 02:53:00
11:53 PM,45.0,39.0,80,29.84,10.0,NW,3.5,-,N/A,,Overcast,310,2013-03-13 03:53:00